CDT,Max TemperatureF,Mean TemperatureF,Min TemperatureF,Max Dew PointF,MeanDew PointF,Min DewpointF,Max Humidity, Mean Humidity, Min Humidity, Max Sea Level PressureIn, Mean Sea Level PressureIn, Min Sea Level PressureIn, Max VisibilityMiles, Mean VisibilityMiles, Min VisibilityMiles, Max Wind SpeedMPH, Mean Wind SpeedMPH, Max Gust SpeedMPH,PrecipitationIn, CloudCover, Events, WindDirDegrees
2013-8-1,84,70,56,67,59,50,96,69,35,30.01,29.98,29.95,10,7,2,14,7,22,0.00,1,Rain,300
2013-8-2,83,68,53,68,61,49,91,76,58,29.98,29.93,29.90,10,9,5,16,5,25,0.05,2,Rain,216
2013-8-3,84,70,55,68,61,52,95,73,42,30.10,30.00,29.94,10,7,1,9,3,17,1.34,3,Rain,3
2013-8-4,83,66,50,62,54,46,92,67,37,30.17,30.13,30.09,10,9,5,6,1,,0.00,1,,52
2013-8-5,79,66,53,62,56,47,85,68,47,30.10,30.01,29.90,10,9,2,8,3,,0.00,3,Rain,165
2013-8-6,86,74,63,72,65,58,89,79,58,29.92,29.89,29.86,10,7,3,8,4,,0.00,5,,193
2013-8-7,85,76,66,73,69,64,95,85,64,29.90,29.86,29.83,7,5,0,8,5,,0.00,3,Fog,212
2013-8-8,78,71,63,74,66,58,94,85,78,29.95,29.92,29.88,10,6,0,9,4,,0.00,5,Fog-Rain,42
2013-8-9,86,72,57,68,60,55,94,73,40,30.05,29.99,29.94,10,8,5,6,3,,0.00,0,,357
2013-8-10,86,72,59,67,61,56,90,69,39,30.10,30.07,30.04,10,8,4,10,2,10,0.00,1,Rain,318
2013-8-11,87,70,53,67,58,50,93,70,39,30.12,30.09,30.05,10,7,2,8,1,,0.00,0,,5
2013-8-12,86,72,59,67,63,56,89,73,49,30.05,29.96,29.87,10,8,4,8,3,,0.00,0,,231
2013-8-13,77,61,46,64,55,41,96,74,42,30.13,30.01,29.88,10,8,2,14,7,23,0.00,2,,12
2013-8-14,75,58,41,60,46,39,92,71,41,30.21,30.16,30.13,10,9,7,8,3,,0.00,3,,38
2013-8-15,79,60,42,60,48,37,84,65,38,30.18,30.14,30.09,10,8,5,7,1,,0.00,0,,83
2013-8-16,82,68,55,61,51,43,87,61,33,30.16,30.14,30.10,10,8,5,9,2,,0.00,0,,55
2013-8-17,82,66,50,64,51,38,84,60,38,30.21,30.16,30.13,10,8,4,10,4,,0.00,0,,64
2013-8-18,85,69,53,72,57,44,89,67,46,30.17,30.12,30.08,10,7,4,8,3,,0.00,0,,83
2013-8-19,89,70,53,68,57,49,88,66,37,30.13,30.09,30.05,10,7,0,6,1,,0.00,1,Fog,223
2013-8-20,89,72,55,69,59,49,87,68,45,30.13,30.09,30.05,10,6,0,9,1,,0.00,1,,139
2013-8-21,89,74,58,69,61,53,89,68,42,30.12,30.08,30.01,10,6,0,10,2,,0.00,1,Fog,214
2013-8-22,81,72,64,67,63,60,87,77,58,30.12,30.06,30.00,10,8,5,15,4,22,0.00,1,,350
2013-8-23,85,72,59,71,60,50,93,73,49,30.14,30.10,30.06,10,5,0,9,3,,0.00,2,Fog-Rain,51
2013-8-24,90,72,55,70,56,45,86,61,37,30.24,30.20,30.14,10,7,4,9,4,,0.00,0,,96
2013-8-25,90,70,51,63,54,45,83,60,35,30.28,30.23,30.19,10,8,5,8,2,,0.00,0,,202
2013-8-26,91,73,55,71,61,49,85,68,43,30.20,30.13,30.05,10,7,3,10,3,,0.00,0,,222
2013-8-27,92,80,67,72,68,63,90,69,46,30.05,29.99,29.93,10,7,5,13,6,20,0.00,0,,238
2013-8-28,95,80,67,72,66,61,85,65,43,30.00,29.94,29.91,7,6,4,15,9,21,0.00,1,,282
2013-8-29,94,78,63,84,66,57,86,76,47,30.06,30.01,29.97,10,4,0,7,3,,0.00,4,Rain,59
2013-8-30,96,78,59,73,65,54,89,68,44,29.97,29.89,29.79,10,6,1,21,3,29,0.75,1,Rain,234
2013-8-31,98,79,61,84,66,59,94,78,50,29.84,29.78,29.70,10,8,5,13,4,18,0.00,1,Rain,124